Time;durP1;ratioP1;P1;durP2;ratioP2;P2;SDS_P1;SDS_P2;PMS_P1;PMS_P2;Temp;Humidity;BMP_temperature;BMP_pressure;BME280_temperature;BME280_humidity;BME280_pressure;Samples;Min_cycle;Max_cycle;Signal;HPM_P1;HPM_P2
2022/05/22 00:00:05;;;;;;;10.07;4.07;;;12.80;99.90;;;;;;5069877;28;20233;-82
2022/05/22 00:02:31;;;;;;;10.43;4.15;;;12.80;99.90;;;;;;5080933;28;20219;-80
2022/05/22 00:04:58;;;;;;;12.52;5.38;;;12.80;99.90;;;;;;5080473;28;20824;-79
2022/05/22 00:07:25;;;;;;;13.45;4.82;;;12.70;99.90;;;;;;5068485;28;20297;-79
2022/05/22 00:09:52;;;;;;;16.88;4.47;;;12.70;99.90;;;;;;5079090;28;20286;-79
2022/05/22 00:12:19;;;;;;;11.00;7.47;;;12.70;99.90;;;;;;5071713;28;20666;-79
2022/05/22 00:14:47;;;;;;;7.70;5.72;;;12.70;99.90;;;;;;5071355;28;20274;-80
2022/05/22 00:17:14;;;;;;;7.68;3.95;;;12.80;99.90;;;;;;5075093;28;20227;-81
2022/05/22 00:19:42;;;;;;;9.88;4.70;;;12.70;99.90;;;;;;5067216;28;20658;-82
2022/05/22 00:22:09;;;;;;;11.02;4.00;;;12.80;99.90;;;;;;5065389;28;20736;-80
2022/05/22 00:24:36;;;;;;;9.32;4.80;;;12.90;99.90;;;;;;5070721;28;20295;-80
2022/05/22 00:27:05;;;;;;;10.95;4.57;;;12.70;99.90;;;;;;5067981;28;20338;-81
2022/05/22 00:29:32;;;;;;;5.25;3.30;;;12.70;99.90;;;;;;5067422;28;20207;-79
2022/05/22 00:32:00;;;;;;;14.50;4.50;;;12.70;99.90;;;;;;5069897;28;20205;-78
2022/05/22 00:34:28;;;;;;;10.45;4.03;;;12.70;99.90;;;;;;5070003;28;20292;-80
2022/05/22 00:36:54;;;;;;;8.65;4.00;;;12.70;99.90;;;;;;5064965;28;20294;-79
2022/05/22 00:39:21;;;;;;;8.02;5.65;;;12.70;99.90;;;;;;5066903;28;20241;-81
2022/05/22 00:41:51;;;;;;;5.55;3.33;;;12.70;99.90;;;;;;5069087;28;20212;-81
2022/05/22 00:44:18;;;;;;;14.20;3.83;;;12.70;99.90;;;;;;5078278;28;20230;-81
2022/05/22 00:46:45;;;;;;;11.43;4.55;;;12.70;99.90;;;;;;5065054;28;20490;-80
2022/05/22 00:49:17;;;;;;;7.38;3.05;;;12.70;99.90;;;;;;5064894;28;20225;-80
2022/05/22 00:51:48;;;;;;;13.63;4.13;;;12.60;99.90;;;;;;5065397;28;20406;-82
2022/05/22 00:54:18;;;;;;;12.57;4.32;;;12.70;99.90;;;;;;5065911;28;20202;-82
2022/05/22 00:56:51;;;;;;;8.63;4.63;;;12.70;99.90;;;;;;5071278;28;20292;-81
2022/05/22 00:59:22;;;;;;;9.82;4.40;;;12.70;99.90;;;;;;5077270;28;20258;-81
2022/05/22 01:01:49;;;;;;;12.35;5.57;;;12.60;99.90;;;;;;5078997;28;20235;-80
2022/05/22 01:04:23;;;;;;;10.40;5.05;;;12.70;99.90;;;;;;5078911;28;20225;-79
2022/05/22 01:06:51;;;;;;;9.43;4.78;;;12.50;99.90;;;;;;5077750;28;20199;-79
2022/05/22 01:09:18;;;;;;;7.78;5.38;;;12.50;99.90;;;;;;5075982;28;20293;-80
2022/05/22 01:11:45;;;;;;;12.25;4.70;;;12.50;99.90;;;;;;5084729;28;20261;-83
2022/05/22 01:14:16;;;;;;;15.73;4.80;;;12.40;99.90;;;;;;5063582;28;20436;-81
2022/05/22 01:16:43;;;;;;;10.10;4.38;;;12.50;99.90;;;;;;5078225;28;20728;-80
2022/05/22 01:19:12;;;;;;;14.63;4.82;;;12.40;99.90;;;;;;5076658;28;20199;-79
2022/05/22 01:21:41;;;;;;;12.57;5.70;;;12.40;99.90;;;;;;5071173;28;20285;-78
2022/05/22 01:24:10;;;;;;;11.68;5.35;;;12.50;99.90;;;;;;5065342;28;20197;-78
2022/05/22 01:26:37;;;;;;;6.07;4.00;;;12.50;99.90;;;;;;5064746;28;20289;-80
2022/05/22 01:29:04;;;;;;;10.38;4.50;;;12.50;99.90;;;;;;5072702;28;20834;-81
2022/05/22 01:31:31;;;;;;;6.60;4.35;;;12.40;99.90;;;;;;5062104;28;20202;-81
2022/05/22 01:33:58;;;;;;;11.38;4.35;;;12.40;99.90;;;;;;5063184;28;20210;-80
2022/05/22 01:36:25;;;;;;;11.90;4.72;;;12.40;99.90;;;;;;5067087;28;20289;-81
2022/05/22 01:38:52;;;;;;;14.32;4.78;;;12.40;99.90;;;;;;5067794;28;20230;-80
2022/05/22 01:41:20;;;;;;;13.05;5.60;;;12.40;99.90;;;;;;5070951;28;20207;-81
2022/05/22 01:43:47;;;;;;;11.75;6.88;;;12.40;99.90;;;;;;5063534;28;20209;-81
2022/05/22 01:46:14;;;;;;;9.82;4.95;;;12.40;99.90;;;;;;5063034;28;20210;-84
2022/05/22 01:48:41;;;;;;;9.57;5.40;;;12.30;99.90;;;;;;5062437;28;20318;-80
2022/05/22 01:51:10;;;;;;;10.25;5.22;;;12.20;99.90;;;;;;5063974;28;20566;-80
2022/05/22 01:53:37;;;;;;;10.63;5.85;;;12.10;99.90;;;;;;5063988;28;20233;-80
2022/05/22 01:56:04;;;;;;;14.88;6.47;;;12.10;99.90;;;;;;5064281;28;20213;-81
2022/05/22 01:58:32;;;;;;;14.32;6.63;;;12.00;99.90;;;;;;5063283;28;20270;-80
2022/05/22 02:00:59;;;;;;;11.35;6.40;;;12.00;99.90;;;;;;5072337;28;20203;-81
2022/05/22 02:03:27;;;;;;;12.25;7.15;;;11.90;99.90;;;;;;5064072;28;20266;-81
2022/05/22 02:05:54;;;;;;;11.02;6.70;;;11.90;99.90;;;;;;5071282;28;20201;-79
2022/05/22 02:08:22;;;;;;;14.45;7.40;;;11.80;99.90;;;;;;5067707;28;20283;-78
2022/05/22 02:10:51;;;;;;;11.90;7.70;;;11.80;99.90;;;;;;5067115;28;20261;-79
2022/05/22 02:13:21;;;;;;;14.68;7.43;;;11.80;99.90;;;;;;5076956;28;20208;-78
2022/05/22 02:15:50;;;;;;;15.90;7.40;;;11.70;99.90;;;;;;5072158;28;20616;-80
2022/05/22 02:18:18;;;;;;;15.70;8.13;;;11.70;99.90;;;;;;5066317;28;20227;-79
2022/05/22 02:20:45;;;;;;;13.50;7.75;;;11.70;99.90;;;;;;5072277;28;20308;-79
2022/05/22 02:23:12;;;;;;;22.27;13.90;;;11.70;99.90;;;;;;5066484;28;20239;-81
2022/05/22 02:25:43;;;;;;;14.07;7.50;;;11.60;99.90;;;;;;5065380;28;20748;-81
2022/05/22 02:28:14;;;;;;;17.42;9.10;;;11.60;99.90;;;;;;5064812;28;20248;-80
2022/05/22 02:30:44;;;;;;;11.85;6.85;;;11.60;99.90;;;;;;5072943;28;20205;-78
2022/05/22 02:33:12;;;;;;;19.35;8.32;;;11.60;99.90;;;;;;5063242;28;20203;-79
2022/05/22 02:35:40;;;;;;;15.07;7.13;;;11.60;99.90;;;;;;5063282;28;20261;-80
2022/05/22 02:38:07;;;;;;;13.00;9.65;;;11.60;99.90;;;;;;5062636;28;20786;-78
2022/05/22 02:40:35;;;;;;;16.00;7.82;;;11.60;99.90;;;;;;5065369;28;20227;-77
2022/05/22 02:43:02;;;;;;;13.45;8.73;;;11.60;99.90;;;;;;5065240;28;20212;-78
2022/05/22 02:45:32;;;;;;;10.88;8.07;;;11.50;99.90;;;;;;5071879;28;20215;-79
2022/05/22 02:47:59;;;;;;;13.93;7.38;;;11.50;99.90;;;;;;5065463;28;20319;-79
2022/05/22 02:50:32;;;;;;;15.85;7.65;;;11.50;99.90;;;;;;5063824;28;20204;-78
2022/05/22 02:52:59;;;;;;;11.57;8.30;;;11.50;99.90;;;;;;5063483;28;20223;-78
2022/05/22 02:55:26;;;;;;;11.35;7.45;;;11.50;99.90;;;;;;5076680;28;20202;-77
2022/05/22 02:57:53;;;;;;;20.23;8.45;;;11.50;99.90;;;;;;5076925;28;20248;-79
2022/05/22 03:00:23;;;;;;;14.02;8.30;;;11.40;99.90;;;;;;5063874;28;20216;-79
2022/05/22 03:02:50;;;;;;;18.38;8.75;;;11.40;99.90;;;;;;5063842;28;20288;-78
2022/05/22 03:05:17;;;;;;;18.75;9.50;;;11.40;99.90;;;;;;5069256;28;20233;-79
2022/05/22 03:07:47;;;;;;;13.70;7.88;;;11.40;99.90;;;;;;5084885;28;20314;-79
2022/05/22 03:10:17;;;;;;;17.08;9.02;;;11.40;99.90;;;;;;5087058;28;20227;-78
2022/05/22 03:12:44;;;;;;;13.43;8.52;;;11.40;99.90;;;;;;5088085;28;20195;-81
2022/05/22 03:15:12;;;;;;;10.63;8.05;;;11.30;99.90;;;;;;5088491;28;20588;-79
2022/05/22 03:17:39;;;;;;;14.48;8.15;;;11.30;99.90;;;;;;5067313;28;20228;-77
2022/05/22 03:20:07;;;;;;;15.18;9.57;;;11.30;99.90;;;;;;5065393;28;20264;-79
2022/05/22 03:22:34;;;;;;;18.40;8.55;;;11.30;99.90;;;;;;5066264;28;20200;-78
2022/05/22 03:25:04;;;;;;;20.90;8.77;;;11.30;99.90;;;;;;5068926;28;20207;-79
2022/05/22 03:27:31;;;;;;;16.85;6.95;;;11.30;99.90;;;;;;5070364;28;20254;-80
2022/05/22 03:29:58;;;;;;;17.42;8.55;;;11.30;99.90;;;;;;5069221;28;20219;-78
2022/05/22 03:32:25;;;;;;;11.80;7.80;;;11.30;99.90;;;;;;5070582;28;20240;-80
2022/05/22 03:34:52;;;;;;;19.48;7.88;;;11.30;99.90;;;;;;5070333;28;20211;-79
2022/05/22 03:37:19;;;;;;;21.65;9.05;;;11.30;99.90;;;;;;5086445;28;20234;-79
2022/05/22 03:39:46;;;;;;;15.52;8.85;;;11.40;99.90;;;;;;5068356;28;20208;-79
2022/05/22 03:42:14;;;;;;;19.02;8.38;;;11.40;99.90;;;;;;5068135;28;20261;-79
2022/05/22 03:44:41;;;;;;;16.02;8.95;;;11.40;99.90;;;;;;5049373;28;20236;-80
2022/05/22 03:47:08;;;;;;;20.35;9.52;;;11.40;99.90;;;;;;5066006;28;20215;-79
2022/05/22 03:49:35;;;;;;;18.85;8.02;;;11.40;99.90;;;;;;5068147;28;20311;-79
2022/05/22 03:52:02;;;;;;;14.82;8.98;;;11.40;99.90;;;;;;5068564;28;20263;-80
2022/05/22 03:54:29;;;;;;;15.45;9.00;;;11.40;99.90;;;;;;5071905;28;20219;-80
2022/05/22 03:56:56;;;;;;;10.63;7.60;;;11.50;99.90;;;;;;5079874;28;20187;-81
2022/05/22 03:59:25;;;;;;;11.90;7.90;;;11.50;99.90;;;;;;5080508;28;20199;-81
2022/05/22 04:01:53;;;;;;;13.48;8.70;;;11.60;99.90;;;;;;5080073;28;20200;-80
2022/05/22 04:04:20;;;;;;;12.13;8.52;;;11.70;99.90;;;;;;5080536;28;20223;-80
2022/05/22 04:06:47;;;;;;;14.43;8.52;;;11.90;99.90;;;;;;5080847;28;20195;-80
2022/05/22 04:09:14;;;;;;;11.05;6.80;;;11.80;99.90;;;;;;5072873;28;20573;-81
2022/05/22 04:11:41;;;;;;;16.15;8.00;;;11.90;99.90;;;;;;5070489;28;20209;-78
2022/05/22 04:14:09;;;;;;;18.15;7.50;;;12.00;99.90;;;;;;5069529;28;20215;-78
2022/05/22 04:16:37;;;;;;;14.38;6.28;;;12.20;99.90;;;;;;5068692;28;20207;-80
2022/05/22 04:19:05;;;;;;;10.57;7.25;;;12.30;99.90;;;;;;5067986;28;20278;-80
2022/05/22 04:21:31;;;;;;;13.38;6.40;;;12.70;99.90;;;;;;5086847;28;20191;-79
2022/05/22 04:26:43;;;;;;;9.60;6.03;;;14.00;99.90;;;;;;5082823;28;20194;-79
2022/05/22 04:29:10;;;;;;;11.65;5.60;;;14.60;99.90;;;;;;5075675;28;20717;-79
2022/05/22 04:31:38;;;;;;;10.50;5.20;;;15.10;99.90;;;;;;5066828;28;20210;-78
2022/05/22 04:34:05;;;;;;;8.25;6.03;;;15.20;99.90;;;;;;5074165;28;20719;-79
2022/05/22 04:36:32;;;;;;;13.63;6.53;;;15.10;99.90;;;;;;5079217;28;20262;-79
2022/05/22 04:38:58;;;;;;;10.63;6.43;;;15.30;99.90;;;;;;5085859;28;20223;-79
2022/05/22 04:41:25;;;;;;;8.23;4.43;;;15.50;99.90;;;;;;5064858;28;20199;-80
2022/05/22 04:43:52;;;;;;;10.40;5.88;;;15.80;99.90;;;;;;5064303;28;20239;-80
2022/05/22 04:46:19;;;;;;;9.32;5.05;;;16.20;99.90;;;;;;5066264;28;20327;-80
2022/05/22 04:48:47;;;;;;;10.98;5.05;;;16.50;99.90;;;;;;5066002;28;20238;-80
2022/05/22 04:51:14;;;;;;;9.93;4.80;;;16.50;99.90;;;;;;5066129;28;20228;-79
2022/05/22 04:53:41;;;;;;;15.32;6.50;;;16.30;99.90;;;;;;5065575;28;20262;-82
2022/05/22 04:56:08;;;;;;;10.70;6.25;;;15.80;99.90;;;;;;5066591;28;20290;-81
2022/05/22 04:58:34;;;;;;;10.15;5.97;;;15.50;99.90;;;;;;5071675;28;20215;-80
2022/05/22 05:01:06;;;;;;;11.13;6.07;;;15.30;99.90;;;;;;5078867;28;20621;-79
2022/05/22 05:03:33;;;;;;;7.07;4.97;;;15.60;99.90;;;;;;5073406;28;20272;-81
2022/05/22 05:06:02;;;;;;;12.20;5.38;;;16.10;99.90;;;;;;5064441;28;20217;-81
2022/05/22 05:08:30;;;;;;;7.85;4.32;;;16.60;99.90;;;;;;5080772;28;20735;-81
2022/05/22 05:10:57;;;;;;;7.30;4.17;;;17.40;99.90;;;;;;5061370;28;20202;-82
2022/05/22 05:13:25;;;;;;;8.87;4.53;;;18.40;99.90;;;;;;5050923;28;20456;-81
2022/05/22 05:16:04;;;;;;;6.93;4.07;;;19.40;99.90;;;;;;5079407;28;20445;-81
2022/05/22 05:18:31;;;;;;;13.47;4.70;;;20.20;99.90;;;;;;5059403;28;20466;-81
2022/05/22 05:21:02;;;;;;;8.63;3.80;;;21.20;97.20;;;;;;5071150;28;20535;-81
2022/05/22 05:23:29;;;;;;;9.90;4.87;;;21.00;94.90;;;;;;5063691;28;20452;-82
2022/05/22 05:25:55;;;;;;;10.77;4.40;;;21.20;95.00;;;;;;5071667;28;20530;-80
2022/05/22 05:28:23;;;;;;;8.90;3.37;;;21.60;94.10;;;;;;5065718;28;20553;-83
2022/05/22 05:30:49;;;;;;;7.20;3.40;;;22.20;93.10;;;;;;5068057;28;20565;-82
2022/05/22 05:33:16;;;;;;;5.40;3.80;;;22.90;91.90;;;;;;5073786;28;20450;-81
2022/05/22 05:35:43;;;;;;;6.90;3.90;;;23.30;90.40;;;;;;5072250;28;20509;-82
2022/05/22 05:38:12;;;;;;;10.40;3.33;;;24.00;89.30;;;;;;5070542;28;20600;-83
2022/05/22 05:40:39;;;;;;;4.80;2.50;;;24.50;86.70;;;;;;5072669;28;20441;-81
2022/05/22 05:43:07;;;;;;;9.17;3.67;;;24.50;86.90;;;;;;5079792;28;20502;-80
2022/05/22 05:45:34;;;;;;;7.50;3.10;;;24.10;87.10;;;;;;5072524;28;20437;-81
2022/05/22 05:48:01;;;;;;;6.33;3.67;;;24.10;84.40;;;;;;5067538;28;20458;-79
2022/05/22 05:50:28;;;;;;;6.03;2.87;;;24.00;83.60;;;;;;5069132;28;20504;-80
2022/05/22 05:52:57;;;;;;;7.87;2.87;;;24.10;84.40;;;;;;5066391;28;20489;-81
2022/05/22 05:55:25;;;;;;;7.83;2.80;;;24.10;84.10;;;;;;5062491;28;20454;-81
2022/05/22 05:57:53;;;;;;;8.70;2.40;;;23.60;83.90;;;;;;5070045;28;20488;-80
2022/05/22 06:00:23;;;;;;;5.80;3.00;;;23.80;85.50;;;;;;5064952;28;20520;-80
2022/05/22 06:02:50;;;;;;;10.03;3.30;;;24.00;84.60;;;;;;5064809;28;20533;-82
2022/05/22 06:05:18;;;;;;;11.03;4.80;;;24.20;84.00;;;;;;5064933;28;20485;-80
2022/05/22 06:07:51;;;;;;;8.03;2.70;;;24.50;83.10;;;;;;5067437;28;20454;-82
2022/05/22 06:10:23;;;;;;;5.70;3.30;;;24.70;82.80;;;;;;5068871;28;20546;-82
2022/05/22 06:12:52;;;;;;;11.43;3.00;;;24.70;82.20;;;;;;5063357;28;20506;-80
2022/05/22 06:15:20;;;;;;;8.93;3.40;;;24.70;82.20;;;;;;5063312;28;20453;-81
2022/05/22 06:17:47;;;;;;;8.13;3.20;;;25.00;81.60;;;;;;5057214;28;20455;-81
2022/05/22 06:20:17;;;;;;;8.20;3.80;;;25.30;81.20;;;;;;5060348;28;20548;-82
2022/05/22 06:22:45;;;;;;;11.33;3.93;;;25.80;79.20;;;;;;5057241;28;20444;-81
2022/05/22 06:25:14;;;;;;;10.03;3.50;;;26.00;77.90;;;;;;5055492;28;20459;-82
2022/05/22 06:27:43;;;;;;;9.67;3.43;;;25.60;78.80;;;;;;5055666;28;20486;-78
2022/05/22 06:30:13;;;;;;;5.40;3.90;;;25.50;78.20;;;;;;5049895;28;20536;-81
2022/05/22 06:32:43;;;;;;;12.30;3.33;;;26.00;78.90;;;;;;5052537;28;20453;-80
2022/05/22 06:35:12;;;;;;;9.73;4.30;;;26.70;76.60;;;;;;5055874;28;20446;-80
2022/05/22 06:37:39;;;;;;;6.47;3.80;;;26.90;75.00;;;;;;5050797;28;20464;-81
2022/05/22 06:40:07;;;;;;;9.60;3.63;;;26.90;74.60;;;;;;5055317;28;20435;-81
2022/05/22 06:42:37;;;;;;;10.30;4.43;;;27.10;74.60;;;;;;5058127;28;20438;-81
2022/05/22 06:45:07;;;;;;;7.83;3.90;;;27.00;73.10;;;;;;5055739;28;20448;-80
2022/05/22 06:47:36;;;;;;;7.67;3.20;;;26.60;73.30;;;;;;5059276;28;20527;-79
2022/05/22 06:50:05;;;;;;;12.27;3.73;;;26.90;73.10;;;;;;5063672;28;20543;-79
2022/05/22 06:52:33;;;;;;;6.77;2.63;;;27.20;72.50;;;;;;5071931;28;20510;-79
2022/05/22 06:55:03;;;;;;;7.70;2.97;;;27.40;71.10;;;;;;5070508;28;20450;-82
2022/05/22 06:57:32;;;;;;;9.00;3.90;;;27.60;69.80;;;;;;5059383;28;20462;-81
2022/05/22 07:00:04;;;;;;;15.83;10.53;;;27.40;70.60;;;;;;5061363;28;20422;-80
2022/05/22 07:02:37;;;;;;;7.10;2.73;;;27.50;70.50;;;;;;5051117;28;20454;-79
2022/05/22 07:05:05;;;;;;;7.00;3.20;;;27.40;69.40;;;;;;5064528;28;20565;-82
2022/05/22 07:07:32;;;;;;;8.03;3.30;;;27.40;68.60;;;;;;5068342;28;20505;-82
2022/05/22 07:09:58;;;;;;;10.03;3.63;;;27.60;68.80;;;;;;5065540;28;20538;-82
2022/05/22 07:12:26;;;;;;;8.47;3.63;;;27.50;68.60;;;;;;5068053;28;20550;-82
2022/05/22 07:14:54;;;;;;;6.43;2.73;;;27.70;68.20;;;;;;5071530;28;20903;-82
2022/05/22 07:17:24;;;;;;;5.10;2.43;;;27.90;66.30;;;;;;5061450;28;20461;-82
2022/05/22 07:19:53;;;;;;;7.27;2.87;;;27.30;66.10;;;;;;5072703;28;20529;-81
2022/05/22 07:22:20;;;;;;;5.30;2.40;;;26.00;68.10;;;;;;5060986;28;20553;-79
2022/05/22 07:24:47;;;;;;;5.70;2.37;;;24.80;70.80;;;;;;5060759;28;20532;-83
2022/05/22 07:27:14;;;;;;;8.60;2.50;;;23.60;74.70;;;;;;5066753;28;20452;-82
2022/05/22 07:29:44;;;;;;;4.83;2.83;;;23.70;75.60;;;;;;5057047;28;20221;-82
2022/05/22 07:32:12;;;;;;;7.00;2.43;;;24.30;74.70;;;;;;5063139;28;20438;-80
2022/05/22 07:34:40;;;;;;;5.97;2.50;;;24.00;74.30;;;;;;5061383;28;20450;-81
2022/05/22 07:37:10;;;;;;;6.77;2.80;;;24.60;74.50;;;;;;5062301;28;20494;-80
2022/05/22 07:39:38;;;;;;;8.13;2.07;;;25.50;71.00;;;;;;5059473;28;20446;-79
2022/05/22 07:42:05;;;;;;;4.83;2.20;;;25.00;69.40;;;;;;5076252;28;20445;-82
2022/05/22 07:44:32;;;;;;;8.15;2.55;;;23.80;73.40;;;;;;5086726;28;20463;-81
2022/05/22 07:47:01;;;;;;;3.63;2.13;;;22.90;76.10;;;;;;5076818;28;20243;-81
2022/05/22 07:52:14;;;;;;;6.33;2.50;;;24.60;74.30;;;;;;5076787;28;20446;-82
2022/05/22 07:54:44;;;;;;;9.97;5.37;;;25.40;73.50;;;;;;5072929;28;20453;-82
2022/05/22 07:57:14;;;;;;;4.60;1.77;;;25.50;70.10;;;;;;5071509;28;20549;-85
2022/05/22 07:59:44;;;;;;;6.00;1.70;;;24.60;69.10;;;;;;5071662;28;20458;-82
2022/05/22 08:02:14;;;;;;;6.20;2.67;;;23.50;69.40;;;;;;5059791;28;20475;-81
2022/05/22 08:04:44;;;;;;;6.70;2.80;;;22.30;73.40;;;;;;5056427;28;20499;-83
2022/05/22 08:07:15;;;;;;;3.90;2.00;;;21.30;75.50;;;;;;5066236;28;20959;-83
2022/05/22 08:09:42;;;;;;;7.13;2.70;;;21.90;77.30;;;;;;5061422;28;20477;-82
2022/05/22 08:12:18;;;;;;;3.97;1.67;;;23.40;74.20;;;;;;5059655;28;20508;-85
2022/05/22 08:14:45;;;;;;;5.60;2.47;;;25.10;71.50;;;;;;5066756;28;20442;-85
2022/05/22 08:17:12;;;;;;;3.13;1.50;;;26.00;67.60;;;;;;5057152;28;20466;-84
2022/05/22 08:19:41;;;;;;;3.07;1.30;;;26.60;66.00;;;;;;5069637;28;20440;-85
2022/05/22 08:22:08;;;;;;;2.90;1.10;;;27.00;62.60;;;;;;5075672;28;20497;-83
2022/05/22 08:24:38;;;;;;;3.03;1.17;;;26.30;61.60;;;;;;5069539;28;20451;-81
2022/05/22 08:27:06;;;;;;;4.70;1.40;;;25.70;63.30;;;;;;5068274;28;20469;-82
2022/05/22 08:29:33;;;;;;;4.47;1.70;;;25.30;65.70;;;;;;5067495;28;20533;-80
2022/05/22 08:32:00;;;;;;;5.93;2.13;;;24.90;66.90;;;;;;5056363;28;20443;-83
2022/05/22 08:34:29;;;;;;;3.43;0.90;;;24.10;66.20;;;;;;5059816;28;20514;-80
2022/05/22 08:36:56;;;;;;;2.20;1.27;;;23.40;66.80;;;;;;5064003;28;20462;-82
2022/05/22 08:39:23;;;;;;;3.90;1.60;;;22.90;67.40;;;;;;5057282;28;20456;-82
2022/05/22 08:41:52;;;;;;;3.13;1.27;;;22.50;70.00;;;;;;5066307;28;20477;-83
2022/05/22 08:44:22;;;;;;;4.57;1.40;;;23.60;69.30;;;;;;5075011;28;20495;-81
2022/05/22 08:46:58;;;;;;;2.80;1.20;;;24.90;67.30;;;;;;5069150;28;20453;-80
2022/05/22 08:49:31;;;;;;;3.47;1.50;;;25.30;64.60;;;;;;5069790;28;20457;-81
2022/05/22 08:52:09;;;;;;;4.63;1.00;;;25.90;63.10;;;;;;5068104;28;20462;-82
2022/05/22 08:54:41;;;;;;;4.43;1.47;;;26.80;62.90;;;;;;5068630;28;20441;-83
2022/05/22 09:00:04;;;;;;;4.33;1.30;;;26.60;63.10;;;;;;5076630;28;20436;-83
2022/05/22 09:02:36;;;;;;;2.57;1.17;;;25.70;62.50;;;;;;5062192;28;20462;-83
2022/05/22 09:05:07;;;;;;;2.60;1.20;;;24.70;66.70;;;;;;5065511;28;20462;-81
2022/05/22 09:07:47;;;;;;;4.90;1.47;;;25.40;63.70;;;;;;5074298;28;20481;-79
2022/05/22 09:10:17;;;;;;;2.40;1.30;;;26.30;62.20;;;;;;5062601;28;20474;-81
2022/05/22 09:12:58;;;;;;;2.47;1.17;;;26.90;60.50;;;;;;5074000;28;20446;-82
2022/05/22 09:15:29;;;;;;;3.40;2.13;;;26.60;61.00;;;;;;5064599;28;21088;-80
2022/05/22 09:18:09;;;;;;;8.83;1.93;;;24.90;63.00;;;;;;5072551;28;20486;-82
2022/05/22 09:20:46;;;;;;;3.13;1.10;;;24.60;66.10;;;;;;5068572;28;20430;-80
2022/05/22 09:23:42;;;;;;;2.70;1.30;;;25.80;65.90;;;;;;5075974;28;20438;-82
2022/05/22 09:26:12;;;;;;;3.77;1.50;;;26.40;62.20;;;;;;5072192;28;20434;-80
2022/05/22 09:28:53;;;;;;;3.90;1.43;;;26.80;60.40;;;;;;5078250;28;20454;-82
2022/05/22 09:31:31;;;;;;;5.03;1.90;;;26.10;60.80;;;;;;5078395;28;20501;-81
2022/05/22 09:34:09;;;;;;;3.03;1.83;;;25.10;63.00;;;;;;5077976;28;20460;-80
2022/05/22 09:36:49;;;;;;;4.37;1.70;;;25.40;64.20;;;;;;5066140;28;20481;-81
2022/05/22 09:39:32;;;;;;;3.53;1.67;;;25.90;62.20;;;;;;5056419;28;20811;-83
2022/05/22 09:42:08;;;;;;;3.50;1.97;;;25.30;63.50;;;;;;5059862;28;20510;-82
2022/05/22 09:45:03;;;;;;;3.90;1.63;;;24.80;65.00;;;;;;5062065;28;20590;-81
2022/05/22 09:48:12;;;;;;;3.10;1.33;;;23.90;65.30;;;;;;5065802;28;20462;-82
2022/05/22 09:50:48;;;;;;;4.20;3.17;;;22.50;66.40;;;;;;5071300;28;20481;-78
2022/05/22 09:53:24;;;;;;;5.47;3.70;;;22.10;70.10;;;;;;5075470;28;20537;-81
2022/05/22 09:55:51;;;;;;;4.37;2.47;;;22.10;70.50;;;;;;5076229;28;20537;-82
2022/05/22 09:58:46;;;;;;;4.80;2.20;;;23.00;70.40;;;;;;5072575;28;20498;-81
2022/05/22 10:01:23;;;;;;;3.97;1.90;;;24.00;65.80;;;;;;5071115;28;20442;-83
2022/05/22 10:04:02;;;;;;;8.30;1.87;;;24.80;65.50;;;;;;5077478;28;20458;-83
2022/05/22 10:06:39;;;;;;;4.13;1.87;;;25.30;64.00;;;;;;5061801;28;20478;-82
2022/05/22 10:09:16;;;;;;;4.30;1.70;;;25.40;62.70;;;;;;5073698;28;20431;-83
2022/05/22 10:12:05;;;;;;;4.00;1.63;;;25.70;62.90;;;;;;5068541;28;20474;-81
2022/05/22 10:14:44;;;;;;;4.57;1.43;;;26.00;62.00;;;;;;5061603;28;20441;-81
2022/05/22 10:17:24;;;;;;;3.33;1.67;;;25.50;62.30;;;;;;5070654;28;20993;-83
2022/05/22 10:19:57;;;;;;;3.33;1.30;;;24.60;64.80;;;;;;5065062;28;20475;-81
2022/05/22 10:22:31;;;;;;;4.67;1.60;;;23.60;66.90;;;;;;5065022;28;20453;-83
2022/05/22 10:25:16;;;;;;;3.20;1.37;;;22.90;68.10;;;;;;5064916;28;20486;-79
2022/05/22 10:27:58;;;;;;;3.07;1.57;;;23.20;68.50;;;;;;5066905;28;20517;-81
2022/05/22 10:30:31;;;;;;;5.07;2.00;;;23.10;67.90;;;;;;5056995;28;20553;-80
2022/05/22 10:33:03;;;;;;;2.10;1.13;;;23.10;68.50;;;;;;5066487;28;20476;-78
2022/05/22 10:35:37;;;;;;;4.07;1.80;;;22.90;68.20;;;;;;5063165;28;20513;-80
2022/05/22 10:38:10;;;;;;;4.63;2.10;;;22.90;68.90;;;;;;5066863;28;20462;-81
2022/05/22 10:43:33;;;;;;;16.83;7.70;;;22.60;67.10;;;;;;5066618;28;20482;-80
2022/05/22 10:46:01;;;;;;;13.15;6.22;;;22.60;69.30;;;;;;5056249;28;20516;-80
2022/05/22 10:48:31;;;;;;;47.77;22.50;;;22.40;69.50;;;;;;5064382;28;20215;-81
2022/05/22 10:51:05;;;;;;;16.43;9.43;;;22.30;71.40;;;;;;5062166;28;20513;-80
2022/05/22 10:53:35;;;;;;;3.60;1.97;;;22.70;71.20;;;;;;5060431;28;20446;-79
2022/05/22 10:56:05;;;;;;;15.63;7.40;;;22.90;68.40;;;;;;5052889;28;20453;-79
2022/05/22 10:58:35;;;;;;;20.77;11.90;;;23.20;70.10;;;;;;5052341;28;20474;-80
2022/05/22 11:01:04;;;;;;;11.80;7.10;;;23.70;69.00;;;;;;5055376;28;20458;-79
2022/05/22 11:03:34;;;;;;;22.77;11.70;;;23.60;68.00;;;;;;5076973;28;20528;-81
2022/05/22 11:06:03;;;;;;;12.63;7.83;;;23.50;68.50;;;;;;5064404;28;20517;-82
2022/05/22 11:08:33;;;;;;;12.83;7.80;;;23.30;68.10;;;;;;5069477;28;20507;-81
2022/05/22 11:11:14;;;;;;;12.40;5.00;;;23.20;67.90;;;;;;5065753;28;20538;-80
2022/05/22 11:13:42;;;;;;;27.40;13.87;;;22.90;67.60;;;;;;5056337;28;20533;-81
2022/05/22 11:16:14;;;;;;;5.70;3.30;;;22.90;69.10;;;;;;5052616;28;20439;-79
2022/05/22 11:18:43;;;;;;;8.90;3.00;;;22.90;69.60;;;;;;5062438;28;20485;-79
2022/05/22 11:21:19;;;;;;;10.40;4.30;;;23.30;69.00;;;;;;5058381;28;20498;-81
2022/05/22 11:23:58;;;;;;;10.80;5.17;;;23.60;68.00;;;;;;5064394;28;20453;-81
2022/05/22 11:26:37;;;;;;;7.17;3.57;;;23.20;68.00;;;;;;5050645;28;20477;-83
2022/05/22 11:29:18;;;;;;;13.90;6.67;;;23.30;68.80;;;;;;5062668;28;20535;-81
2022/05/22 11:31:56;;;;;;;16.50;8.83;;;23.20;69.10;;;;;;5065635;28;20512;-82
2022/05/22 11:34:57;;;;;;;14.53;8.37;;;23.10;70.30;;;;;;5059654;28;20501;-83
2022/05/22 11:37:36;;;;;;;13.50;6.90;;;22.70;71.10;;;;;;5037388;28;20472;-82
2022/05/22 11:40:13;;;;;;;6.80;3.57;;;22.40;70.90;;;;;;5063525;28;20437;-83
2022/05/22 11:42:41;;;;;;;4.30;2.67;;;22.80;71.50;;;;;;5061227;28;20492;-82
2022/05/22 11:45:32;;;;;;;9.90;5.13;;;23.10;70.50;;;;;;5068637;28;20477;-83
2022/05/22 11:48:12;;;;;;;5.70;3.23;;;23.50;70.10;;;;;;5059202;28;20473;-81
2022/05/22 11:50:48;;;;;;;20.30;10.10;;;23.40;69.30;;;;;;5061812;28;20631;-82
2022/05/22 11:53:52;;;;;;;11.93;8.73;;;23.30;69.40;;;;;;5063654;28;20477;-83
2022/05/22 11:56:42;;;;;;;10.17;5.07;;;23.40;69.40;;;;;;5071673;28;20442;-82
2022/05/22 11:59:21;;;;;;;7.37;3.37;;;23.00;67.80;;;;;;5071798;28;20442;-82
2022/05/22 12:01:57;;;;;;;9.53;4.70;;;22.70;68.70;;;;;;5071896;28;20727;-83
2022/05/22 12:04:55;;;;;;;2.57;1.20;;;22.70;67.70;;;;;;5086525;28;20484;-84
2022/05/22 12:07:49;;;;;;;11.43;4.90;;;22.50;67.60;;;;;;5063758;28;20469;-81
2022/05/22 12:10:21;;;;;;;9.43;5.80;;;22.40;70.70;;;;;;5068805;28;20951;-82
2022/05/22 12:12:53;;;;;;;6.27;3.10;;;22.60;71.30;;;;;;5079162;28;20528;-79
2022/05/22 12:15:32;;;;;;;10.17;4.03;;;22.90;71.70;;;;;;5069664;28;20453;-82
2022/05/22 12:18:05;;;;;;;5.70;3.43;;;23.20;71.10;;;;;;5077005;28;20452;-81
2022/05/22 12:20:36;;;;;;;8.20;4.20;;;23.10;69.90;;;;;;5079612;28;20457;-81
2022/05/22 12:23:14;;;;;;;18.03;8.20;;;23.00;70.00;;;;;;5088601;28;20505;-81
2022/05/22 12:25:45;;;;;;;11.57;6.10;;;23.20;71.00;;;;;;5070475;28;20489;-82
2022/05/22 12:28:35;;;;;;;5.73;3.07;;;23.60;69.20;;;;;;5065885;28;20504;-80
2022/05/22 12:31:05;;;;;;;9.50;4.00;;;23.90;67.30;;;;;;5072959;28;20511;-81
2022/05/22 12:33:34;;;;;;;4.70;2.50;;;23.80;67.10;;;;;;5070381;28;20449;-82
2022/05/22 12:36:04;;;;;;;7.50;4.53;;;23.90;67.10;;;;;;5075187;28;20484;-82
2022/05/22 12:38:47;;;;;;;3.10;1.83;;;23.90;67.80;;;;;;5078724;28;20528;-81
2022/05/22 12:41:25;;;;;;;7.17;3.90;;;23.80;67.50;;;;;;5073948;28;20522;-83
2022/05/22 12:43:59;;;;;;;4.80;2.80;;;23.60;68.40;;;;;;5074670;28;20438;-81
2022/05/22 12:46:27;;;;;;;6.10;1.80;;;23.30;67.30;;;;;;5063313;28;20529;-81
2022/05/22 12:49:05;;;;;;;8.13;3.40;;;23.00;67.00;;;;;;5070272;28;20493;-81
2022/05/22 12:51:34;;;;;;;2.60;1.43;;;22.90;69.20;;;;;;5062532;28;20521;-80
2022/05/22 12:54:21;;;;;;;4.80;2.57;;;23.00;68.70;;;;;;5075716;28;20446;-82
2022/05/22 12:56:48;;;;;;;4.50;2.20;;;22.80;67.50;;;;;;5065714;28;20450;-81
2022/05/22 12:59:21;;;;;;;4.37;2.90;;;22.80;67.40;;;;;;5064472;28;21094;-81
2022/05/22 13:01:51;;;;;;;5.17;1.93;;;22.80;69.30;;;;;;5064199;28;20467;-81
2022/05/22 13:04:33;;;;;;;7.20;1.37;;;22.90;68.50;;;;;;5073288;28;20446;-81
2022/05/22 13:07:03;;;;;;;3.80;1.20;;;23.10;68.00;;;;;;5060634;28;20478;-81
2022/05/22 13:09:40;;;;;;;4.90;2.40;;;23.30;68.70;;;;;;5063485;28;20442;-79
2022/05/22 13:12:23;;;;;;;7.13;1.37;;;23.40;69.50;;;;;;5064614;28;20541;-80